• Join FlightAware (Why Join?)
  • Login
  • US Flag 
11:34PM EDT


 

Airport Tracker/Info


-or-


 

Live Flight TrackerFlight Track Log ✈ KBA204 ✈ 07-May-2013 ✈ CYEV - CYZF

Flight Track Log - Related Links

Times and Time Zones

All times are in EDT time to prevent confusion due to time zone crossing. See the KBA204 flight status page for this flight to view local times or setup timezone preferences in your user account.

Time Position Orientation Groundspeed Altitude Reporting Facility
EDT Latitude Longitude Course Direction KTS MPH feet Rate Location/Type
11:57PM 68.0533 -132.2748 119° Southeast  Level FlightAware Approximate
11:58PM 68.0178 -132.1054 119° Southeast  Level FlightAware Approximate
11:59PM 67.9838 -131.9341 118° Southeast  Level FlightAware Approximate
12:00AM 67.9497 -131.7633 118° Southeast  Level FlightAware Approximate
12:01AM 67.9154 -131.5929 118° Southeast  Level FlightAware Approximate
12:02AM 67.8805 -131.4237 119° Southeast  Level FlightAware Approximate
12:03AM 67.8451 -131.2556 119° Southeast  Level FlightAware Approximate
12:04AM 67.8084 -131.0896 121° Southeast  Level FlightAware Approximate
12:05AM 67.7710 -130.9250 121° Southeast  Level FlightAware Approximate
12:06AM 67.7340 -130.7600 120° Southeast  Level FlightAware Approximate
12:07AM 67.6978 -130.5941 120° Southeast  Level FlightAware Approximate
12:08AM 67.6613 -130.4288 120° Southeast  Level FlightAware Approximate
12:09AM 67.6247 -130.2640 120° Southeast  Level FlightAware Approximate
12:10AM 67.5879 -130.0997 120° Southeast  Level FlightAware Approximate
12:11AM 67.5510 -129.9359 121° Southeast  Level FlightAware Approximate
12:12AM 67.5139 -129.7726 121° Southeast  Level FlightAware Approximate
12:13AM 67.4766 -129.6098 121° Southeast  Level FlightAware Approximate
12:14AM 67.4391 -129.4476 121° Southeast  Level FlightAware Approximate
12:15AM 67.4016 -129.2858 121° Southeast  Level FlightAware Approximate
12:16AM 67.3638 -129.1246 121° Southeast  Level FlightAware Approximate
12:17AM 67.3259 -128.9638 121° Southeast  Level FlightAware Approximate
12:18AM 67.2878 -128.8036 122° Southeast  Level FlightAware Approximate
12:19AM 67.2495 -128.6439 122° Southeast  Level FlightAware Approximate
12:20AM 67.2112 -128.4847 122° Southeast  Level FlightAware Approximate
12:21AM 67.1726 -128.3260 122° Southeast  Level FlightAware Approximate
12:22AM 67.1339 -128.1678 122° Southeast  Level FlightAware Approximate
12:23AM 67.0950 -128.0101 122° Southeast  Level FlightAware Approximate
12:24AM 67.0560 -127.8530 122° Southeast  Level FlightAware Approximate
12:25AM 67.0168 -127.6963 123° Southeast  Level FlightAware Approximate
12:26AM 66.9775 -127.5402 123° Southeast  Level FlightAware Approximate
12:27AM 66.9380 -127.3845 123° Southeast  Level FlightAware Approximate
12:28AM 66.8984 -127.2293 123° Southeast  Level FlightAware Approximate
12:29AM 66.8586 -127.0747 123° Southeast  Level FlightAware Approximate
12:30AM 66.8186 -126.9205 123° Southeast  Level FlightAware Approximate
12:31AM 66.7785 -126.7669 123° Southeast  Level FlightAware Approximate
12:32AM 66.7383 -126.6138 124° Southeast  Level FlightAware Approximate
12:33AM 66.6979 -126.4611 124° Southeast  Level FlightAware Approximate
12:34AM 66.6574 -126.3090 124° Southeast  Level FlightAware Approximate
12:35AM 66.6167 -126.1573 124° Southeast  Level FlightAware Approximate
12:36AM 66.5759 -126.0062 124° Southeast  Level FlightAware Approximate
12:37AM 66.5349 -125.8555 124° Southeast  Level FlightAware Approximate
12:38AM 66.4938 -125.7054 124° Southeast  Level FlightAware Approximate
12:39AM 66.4526 -125.5557 125° Southeast  Level FlightAware Approximate
12:40AM 66.4111 -125.4066 125° Southeast  Level FlightAware Approximate
12:41AM 66.3696 -125.2579 125° Southeast  Level FlightAware Approximate
12:42AM 66.3279 -125.1097 125° Southeast  Level FlightAware Approximate
12:43AM 66.2861 -124.9620 125° Southeast  Level FlightAware Approximate
12:44AM 66.2441 -124.8148 125° Southeast  Level FlightAware Approximate
12:45AM 66.2020 -124.6682 125° Southeast  Level FlightAware Approximate
12:46AM 66.1598 -124.5219 126° Southeast  Level FlightAware Approximate
12:47AM 66.1174 -124.3762 126° Southeast  Level FlightAware Approximate
12:48AM 66.0749 -124.2310 126° Southeast  Level FlightAware Approximate
12:49AM 66.0323 -124.0862 126° Southeast  Level FlightAware Approximate
12:50AM 65.9895 -123.9419 126° Southeast  Level FlightAware Approximate
12:51AM 65.9466 -123.7981 126° Southeast  Level FlightAware Approximate
12:52AM 65.9035 -123.6548 126° Southeast  Level FlightAware Approximate
12:53AM 65.8603 -123.5120 126° Southeast  Level FlightAware Approximate
12:54AM 65.8170 -123.3697 127° Southeast  Level FlightAware Approximate
12:55AM 65.7736 -123.2278 127° Southeast  Level FlightAware Approximate
12:56AM 65.7300 -123.0864 127° Southeast  Level FlightAware Approximate
12:57AM 65.6863 -122.9455 127° Southeast  Level FlightAware Approximate
12:58AM 65.6424 -122.8051 127° Southeast  Level FlightAware Approximate
12:59AM 65.5985 -122.6652 127° Southeast  Level FlightAware Approximate
01:00AM 65.5544 -122.5257 127° Southeast  Level FlightAware Approximate
01:01AM 65.5101 -122.3867 127° Southeast  Level FlightAware Approximate
01:02AM 65.4658 -122.2481 128° Southeast  Level FlightAware Approximate
01:03AM 65.4213 -122.1100 128° Southeast  Level FlightAware Approximate
01:04AM 65.3767 -121.9725 128° Southeast  Level FlightAware Approximate
01:05AM 65.3320 -121.8353 128° Southeast  Level FlightAware Approximate
01:06AM 65.2871 -121.6986 128° Southeast  Level FlightAware Approximate
01:07AM 65.2421 -121.5624 128° Southeast  Level FlightAware Approximate
01:08AM 65.1970 -121.4267 128° Southeast  Level FlightAware Approximate
01:09AM 65.1518 -121.2914 128° Southeast  Level FlightAware Approximate
01:10AM 65.1065 -121.1566 129° Southeast  Level FlightAware Approximate
01:11AM 65.0610 -121.0222 129° Southeast  Level FlightAware Approximate
01:12AM 65.0154 -120.8884 129° Southeast  Level FlightAware Approximate
01:13AM 64.9697 -120.7549 129° Southeast  Level FlightAware Approximate
01:14AM 64.9239 -120.6219 129° Southeast  Level FlightAware Approximate
01:15AM 64.8780 -120.4894 129° Southeast  Level FlightAware Approximate
01:16AM 64.8319 -120.3573 129° Southeast  Level FlightAware Approximate
01:17AM 64.7857 -120.2257 129° Southeast  Level FlightAware Approximate
01:18AM 64.7394 -120.0945 130° Southeast  Level FlightAware Approximate
01:19AM 64.6930 -119.9638 130° Southeast  Level FlightAware Approximate
01:20AM 64.6464 -119.8337 130° Southeast  Level FlightAware Approximate
01:21AM 64.5997 -119.7040 130° Southeast  Level FlightAware Approximate
01:22AM 64.5528 -119.5748 130° Southeast  Level FlightAware Approximate
01:23AM 64.5059 -119.4460 130° Southeast  Level FlightAware Approximate
01:24AM 64.4588 -119.3177 130° Southeast  Level FlightAware Approximate
01:25AM 64.4117 -119.1898 130° Southeast  Level FlightAware Approximate
01:25AM 64.5333 -119.6000 131° Southeast 290 334 25,100  Level Edmonton Center
01:26AM 64.3644 -119.0624 131° Southeast  Level FlightAware Approximate
01:26AM 64.5000 -119.4667 120° Southeast 270 311 25,000  Level Edmonton Center
01:27AM 64.3170 -118.9353 131° Southeast  Level FlightAware Approximate
01:27AM 64.4500 -119.3167 128° Southeast 270 311 25,100  Level Edmonton Center
01:28AM 64.2695 -118.8088 131° Southeast  Level FlightAware Approximate
01:28AM 64.4000 -119.2167 139° Southeast 270 311 25,100  Level Edmonton Center
01:29AM 64.2219 -118.6826 131° Southeast  Level FlightAware Approximate
01:29AM 64.3500 -119.0667 128° Southeast 270 311 25,100  Level Edmonton Center
01:30AM 64.1741 -118.5569 131° Southeast  Level FlightAware Approximate
01:30AM 64.2833 -118.9500 143° Southeast 270 311 25,100  Level Edmonton Center
01:31AM 64.2500 -118.8167 120° Southeast 270 311 25,100  Level Edmonton Center
01:31AM 64.2167 -118.6833 120° Southeast 280 322 25,100  Level Edmonton Center
01:32AM 64.1500 -118.5667 143° Southeast 270 311 25,100  Level Edmonton Center
01:33AM 64.1000 -118.4167 127° Southeast 270 311 25,100 -60 Level Edmonton Center
01:34AM 64.0667 -118.2833 120° Southeast 270 311 25,000  Descending Edmonton Center
01:35AM 64.0000 -118.1333 135° Southeast 270 311 25,100  Climbing Edmonton Center
01:36AM 63.9500 -118.0333 139° Southeast 280 322 25,100  Level Edmonton Center
01:37AM 63.9000 -117.9000 130° Southeast 280 322 25,100  Level Edmonton Center
01:38AM 63.8500 -117.7500 127° Southeast 280 322 25,100  Level Edmonton Center
01:39AM 63.8000 -117.6167 130° Southeast 280 322 25,100  Level Edmonton Center
01:40AM 63.7500 -117.4833 130° Southeast 280 322 25,100  Level Edmonton Center
01:41AM 63.7000 -117.3333 127° Southeast 280 322 25,100  Level Edmonton Center
01:42AM 63.6333 -117.2333 146° Southeast 280 322 25,100  Level Edmonton Center
01:43AM 63.5833 -117.1000 130° Southeast 290 334 25,100  Level Edmonton Center
01:44AM 63.5167 -116.9500 135° Southeast 290 334 25,100 -60 Level Edmonton Center
01:45AM 63.4667 -116.8167 130° Southeast 290 334 25,000 -300 Descending Edmonton Center
01:46AM 63.4000 -116.6667 135° Southeast 290 334 24,600 -780 Descending Edmonton Center
01:47AM 63.3500 -116.5333 130° Southeast 300 345 23,500 -1,080 Descending Edmonton Center
01:48AM 63.3000 -116.4000 130° Southeast 290 334 22,500 -1,080 Descending Edmonton Center
01:49AM 63.2500 -116.2667 130° Southeast 270 311 21,400 -1,200 Descending Edmonton Center
01:50AM 63.2000 -116.1667 138° Southeast 270 311 20,200 -1,260 Descending Edmonton Center
01:51AM 63.1500 -116.0333 130° Southeast 270 311 18,900 -1,140 Descending Edmonton Center
01:52AM 63.0833 -115.9333 146° Southeast 270 311 18,000 -1,260 Descending Edmonton Center
01:53AM 63.0500 -115.8167 122° Southeast 270 311 16,400 -1,620 Descending Edmonton Center
01:54AM 62.9833 -115.6667 134° Southeast 270 311 14,800 -1,620 Descending Edmonton Center
01:55AM 62.9500 -115.5833 131° Southeast 260 299 13,200 -1,500 Descending Edmonton Center
01:56AM 62.9000 -115.4500 129° Southeast 260 299 11,800 -1,500 Descending Edmonton Center
01:57AM 62.8500 -115.3167 129° Southeast 250 288 10,200 -1,680 Descending Edmonton Center
01:58AM 62.8000 -115.2333 143° Southeast 240 276 8,500 -1,620 Descending Edmonton Center
01:59AM 62.7500 -115.1333 137° Southeast 240 276 7,000 -1,500 Descending Edmonton Center
02:00AM 62.7167 -115.0167 122° Southeast 230 265 5,600 -1,080 Descending Edmonton Center
02:01AM 62.6667 -114.9167 137° Southeast 220 253 4,900 -660 Descending Edmonton Center
02:02AM 62.6167 -114.8667 155° Southeast 210 242 4,300 -780 Descending Edmonton Center
02:03AM 62.5667 -114.8167 155° Southeast 210 242 3,400 -720 Descending Edmonton Center
02:04AM 62.5167 -114.7333 142° Southeast 200 230 2,900 -540 Descending Edmonton Center
02:05AM 62.5167 -114.6500 90° East 150 173 2,400 -600 Descending Edmonton Center
02:06AM 62.5000 -114.5667 113° Southeast 130 150 1,700 -720 Descending Edmonton Center
02:07AM 62.4667 -114.5333 155° Southeast 110 127 1,000 -540 Descending Edmonton Center
02:08AM 62.4667 -114.4833 90° East 90 104 700 -300 Descending Edmonton Center